sensor_id;sensor_type;location;lat;lon;timestamp;P1;durP1;ratioP1;P2;durP2;ratioP2
13309;SDS011;6723;48.256;16.402;2023-08-06T00:00:26;0.30;;;0.30;;
13309;SDS011;6723;48.256;16.402;2023-08-06T00:02:53;0.30;;;0.30;;
13309;SDS011;6723;48.256;16.402;2023-08-06T00:05:18;0.30;;;0.30;;
13309;SDS011;6723;48.256;16.402;2023-08-06T00:07:46;0.30;;;0.30;;
13309;SDS011;6723;48.256;16.402;2023-08-06T00:10:13;0.40;;;0.40;;
13309;SDS011;6723;48.256;16.402;2023-08-06T00:12:38;0.97;;;0.30;;
13309;SDS011;6723;48.256;16.402;2023-08-06T00:15:04;0.40;;;0.33;;
13309;SDS011;6723;48.256;16.402;2023-08-06T00:17:31;0.20;;;0.20;;
13309;SDS011;6723;48.256;16.402;2023-08-06T00:19:56;2.10;;;0.30;;
13309;SDS011;6723;48.256;16.402;2023-08-06T00:22:22;0.30;;;0.30;;
13309;SDS011;6723;48.256;16.402;2023-08-06T00:24:48;0.40;;;0.30;;
13309;SDS011;6723;48.256;16.402;2023-08-06T00:27:14;1.07;;;0.40;;
13309;SDS011;6723;48.256;16.402;2023-08-06T00:29:39;2.03;;;0.20;;
13309;SDS011;6723;48.256;16.402;2023-08-06T00:32:05;0.17;;;0.17;;
13309;SDS011;6723;48.256;16.402;2023-08-06T00:34:31;0.20;;;0.20;;
13309;SDS011;6723;48.256;16.402;2023-08-06T00:36:57;0.20;;;0.20;;
13309;SDS011;6723;48.256;16.402;2023-08-06T00:39:22;0.47;;;0.43;;
13309;SDS011;6723;48.256;16.402;2023-08-06T00:41:48;0.30;;;0.30;;
13309;SDS011;6723;48.256;16.402;2023-08-06T00:44:14;0.23;;;0.20;;
13309;SDS011;6723;48.256;16.402;2023-08-06T00:46:40;0.23;;;0.23;;
13309;SDS011;6723;48.256;16.402;2023-08-06T00:49:05;0.20;;;0.20;;
13309;SDS011;6723;48.256;16.402;2023-08-06T00:51:31;1.10;;;0.33;;
13309;SDS011;6723;48.256;16.402;2023-08-06T00:53:58;0.20;;;0.20;;
13309;SDS011;6723;48.256;16.402;2023-08-06T00:56:24;0.30;;;0.30;;
13309;SDS011;6723;48.256;16.402;2023-08-06T00:58:50;0.40;;;0.40;;
13309;SDS011;6723;48.256;16.402;2023-08-06T01:01:16;0.20;;;0.20;;
13309;SDS011;6723;48.256;16.402;2023-08-06T01:03:42;0.30;;;0.30;;
13309;SDS011;6723;48.256;16.402;2023-08-06T01:06:08;0.40;;;0.40;;
13309;SDS011;6723;48.256;16.402;2023-08-06T01:08:48;0.30;;;0.30;;
13309;SDS011;6723;48.256;16.402;2023-08-06T01:11:31;0.23;;;0.23;;
13309;SDS011;6723;48.256;16.402;2023-08-06T01:14:26;0.47;;;0.47;;
13309;SDS011;6723;48.256;16.402;2023-08-06T01:16:58;0.30;;;0.30;;
13309;SDS011;6723;48.256;16.402;2023-08-06T01:19:25;0.30;;;0.30;;
13309;SDS011;6723;48.256;16.402;2023-08-06T01:21:51;0.60;;;0.40;;
13309;SDS011;6723;48.256;16.402;2023-08-06T01:24:17;0.40;;;0.30;;
13309;SDS011;6723;48.256;16.402;2023-08-06T01:26:48;0.30;;;0.30;;
13309;SDS011;6723;48.256;16.402;2023-08-06T01:29:24;0.30;;;0.30;;
13309;SDS011;6723;48.256;16.402;2023-08-06T01:31:56;0.20;;;0.20;;
13309;SDS011;6723;48.256;16.402;2023-08-06T01:34:24;0.60;;;0.40;;
13309;SDS011;6723;48.256;16.402;2023-08-06T01:36:53;0.30;;;0.30;;
13309;SDS011;6723;48.256;16.402;2023-08-06T01:39:20;1.60;;;0.40;;
13309;SDS011;6723;48.256;16.402;2023-08-06T01:41:47;0.30;;;0.30;;
13309;SDS011;6723;48.256;16.402;2023-08-06T01:44:14;0.10;;;0.10;;
13309;SDS011;6723;48.256;16.402;2023-08-06T01:46:41;0.10;;;0.10;;
13309;SDS011;6723;48.256;16.402;2023-08-06T01:49:07;0.17;;;0.17;;
13309;SDS011;6723;48.256;16.402;2023-08-06T01:51:32;0.20;;;0.20;;
13309;SDS011;6723;48.256;16.402;2023-08-06T01:53:58;0.30;;;0.20;;
13309;SDS011;6723;48.256;16.402;2023-08-06T01:56:24;0.20;;;0.20;;
13309;SDS011;6723;48.256;16.402;2023-08-06T01:58:50;1.80;;;0.37;;
13309;SDS011;6723;48.256;16.402;2023-08-06T02:01:15;0.20;;;0.20;;
13309;SDS011;6723;48.256;16.402;2023-08-06T02:03:41;0.27;;;0.27;;
13309;SDS011;6723;48.256;16.402;2023-08-06T02:06:07;0.80;;;0.23;;
13309;SDS011;6723;48.256;16.402;2023-08-06T02:08:33;0.47;;;0.40;;
13309;SDS011;6723;48.256;16.402;2023-08-06T02:10:58;0.30;;;0.30;;
13309;SDS011;6723;48.256;16.402;2023-08-06T02:13:24;0.50;;;0.40;;
13309;SDS011;6723;48.256;16.402;2023-08-06T02:15:50;0.50;;;0.50;;
13309;SDS011;6723;48.256;16.402;2023-08-06T02:18:16;1.47;;;0.50;;
13309;SDS011;6723;48.256;16.402;2023-08-06T02:20:42;1.33;;;0.60;;
13309;SDS011;6723;48.256;16.402;2023-08-06T02:23:08;0.50;;;0.50;;
13309;SDS011;6723;48.256;16.402;2023-08-06T02:25:34;0.53;;;0.53;;
13309;SDS011;6723;48.256;16.402;2023-08-06T02:28:00;0.60;;;0.60;;
13309;SDS011;6723;48.256;16.402;2023-08-06T02:30:26;1.30;;;0.50;;
13309;SDS011;6723;48.256;16.402;2023-08-06T02:32:52;1.43;;;0.70;;
13309;SDS011;6723;48.256;16.402;2023-08-06T02:35:18;0.87;;;0.80;;
13309;SDS011;6723;48.256;16.402;2023-08-06T02:37:43;0.80;;;0.80;;
13309;SDS011;6723;48.256;16.402;2023-08-06T02:40:09;1.23;;;0.70;;
13309;SDS011;6723;48.256;16.402;2023-08-06T02:42:36;0.70;;;0.70;;
13309;SDS011;6723;48.256;16.402;2023-08-06T02:45:01;0.70;;;0.70;;
13309;SDS011;6723;48.256;16.402;2023-08-06T02:47:27;1.50;;;1.00;;
13309;SDS011;6723;48.256;16.402;2023-08-06T02:49:53;0.73;;;0.73;;
13309;SDS011;6723;48.256;16.402;2023-08-06T02:52:19;0.90;;;0.90;;
13309;SDS011;6723;48.256;16.402;2023-08-06T02:54:45;0.90;;;0.90;;
13309;SDS011;6723;48.256;16.402;2023-08-06T02:57:10;0.90;;;0.90;;
13309;SDS011;6723;48.256;16.402;2023-08-06T02:59:36;0.90;;;0.90;;
13309;SDS011;6723;48.256;16.402;2023-08-06T03:02:02;0.70;;;0.70;;
13309;SDS011;6723;48.256;16.402;2023-08-06T03:04:27;1.97;;;0.87;;
13309;SDS011;6723;48.256;16.402;2023-08-06T03:06:53;0.80;;;0.80;;
13309;SDS011;6723;48.256;16.402;2023-08-06T03:09:19;1.10;;;1.00;;
13309;SDS011;6723;48.256;16.402;2023-08-06T03:11:45;1.10;;;1.10;;
13309;SDS011;6723;48.256;16.402;2023-08-06T03:14:11;0.90;;;0.90;;
13309;SDS011;6723;48.256;16.402;2023-08-06T03:16:36;2.13;;;1.00;;
13309;SDS011;6723;48.256;16.402;2023-08-06T03:19:02;1.83;;;1.03;;
13309;SDS011;6723;48.256;16.402;2023-08-06T03:21:28;2.00;;;1.07;;
13309;SDS011;6723;48.256;16.402;2023-08-06T03:23:53;0.87;;;0.87;;
13309;SDS011;6723;48.256;16.402;2023-08-06T03:26:19;1.33;;;1.00;;
13309;SDS011;6723;48.256;16.402;2023-08-06T03:28:46;1.20;;;1.10;;
13309;SDS011;6723;48.256;16.402;2023-08-06T03:31:11;0.97;;;0.97;;
13309;SDS011;6723;48.256;16.402;2023-08-06T03:33:37;1.90;;;1.20;;
13309;SDS011;6723;48.256;16.402;2023-08-06T03:36:03;1.10;;;1.10;;
13309;SDS011;6723;48.256;16.402;2023-08-06T03:38:29;1.03;;;1.03;;
13309;SDS011;6723;48.256;16.402;2023-08-06T03:40:54;1.00;;;1.00;;
13309;SDS011;6723;48.256;16.402;2023-08-06T03:43:20;2.23;;;1.33;;
13309;SDS011;6723;48.256;16.402;2023-08-06T03:45:46;1.40;;;1.30;;
13309;SDS011;6723;48.256;16.402;2023-08-06T03:48:11;1.40;;;1.30;;
13309;SDS011;6723;48.256;16.402;2023-08-06T03:50:37;1.97;;;1.40;;
13309;SDS011;6723;48.256;16.402;2023-08-06T03:53:04;1.50;;;1.40;;
13309;SDS011;6723;48.256;16.402;2023-08-06T03:55:29;1.50;;;1.40;;
13309;SDS011;6723;48.256;16.402;2023-08-06T03:57:55;1.30;;;1.20;;
13309;SDS011;6723;48.256;16.402;2023-08-06T04:00:21;1.47;;;1.37;;
13309;SDS011;6723;48.256;16.402;2023-08-06T04:02:46;1.50;;;1.40;;
13309;SDS011;6723;48.256;16.402;2023-08-06T04:05:13;1.40;;;1.30;;
13309;SDS011;6723;48.256;16.402;2023-08-06T04:07:38;1.73;;;1.33;;
13309;SDS011;6723;48.256;16.402;2023-08-06T04:10:04;1.77;;;1.50;;
13309;SDS011;6723;48.256;16.402;2023-08-06T04:12:31;1.60;;;1.50;;
13309;SDS011;6723;48.256;16.402;2023-08-06T04:14:58;1.50;;;1.40;;
13309;SDS011;6723;48.256;16.402;2023-08-06T04:17:26;1.60;;;1.50;;
13309;SDS011;6723;48.256;16.402;2023-08-06T04:19:52;1.70;;;1.60;;
13309;SDS011;6723;48.256;16.402;2023-08-06T04:22:19;1.87;;;1.70;;
13309;SDS011;6723;48.256;16.402;2023-08-06T04:24:46;1.60;;;1.50;;
13309;SDS011;6723;48.256;16.402;2023-08-06T04:27:14;2.00;;;1.80;;
13309;SDS011;6723;48.256;16.402;2023-08-06T04:29:40;2.20;;;1.60;;
13309;SDS011;6723;48.256;16.402;2023-08-06T04:32:07;1.93;;;1.83;;
13309;SDS011;6723;48.256;16.402;2023-08-06T04:34:35;1.67;;;1.50;;
13309;SDS011;6723;48.256;16.402;2023-08-06T04:37:02;2.13;;;1.80;;
13309;SDS011;6723;48.256;16.402;2023-08-06T04:39:29;1.80;;;1.70;;
13309;SDS011;6723;48.256;16.402;2023-08-06T04:41:55;1.60;;;1.40;;
13309;SDS011;6723;48.256;16.402;2023-08-06T04:44:24;1.53;;;1.43;;
13309;SDS011;6723;48.256;16.402;2023-08-06T04:46:50;1.77;;;1.30;;
13309;SDS011;6723;48.256;16.402;2023-08-06T04:49:16;1.40;;;1.30;;
13309;SDS011;6723;48.256;16.402;2023-08-06T04:51:43;1.60;;;1.50;;
13309;SDS011;6723;48.256;16.402;2023-08-06T04:54:09;1.70;;;1.60;;
13309;SDS011;6723;48.256;16.402;2023-08-06T04:56:35;2.30;;;1.43;;
13309;SDS011;6723;48.256;16.402;2023-08-06T04:59:01;2.03;;;1.50;;
13309;SDS011;6723;48.256;16.402;2023-08-06T05:01:26;1.50;;;1.40;;
13309;SDS011;6723;48.256;16.402;2023-08-06T05:03:53;2.13;;;1.73;;
13309;SDS011;6723;48.256;16.402;2023-08-06T05:06:19;1.70;;;1.47;;
13309;SDS011;6723;48.256;16.402;2023-08-06T05:08:45;1.50;;;1.40;;
13309;SDS011;6723;48.256;16.402;2023-08-06T05:11:10;1.50;;;1.40;;
13309;SDS011;6723;48.256;16.402;2023-08-06T05:13:36;1.47;;;1.37;;
13309;SDS011;6723;48.256;16.402;2023-08-06T05:16:02;1.40;;;1.30;;
13309;SDS011;6723;48.256;16.402;2023-08-06T05:18:28;1.70;;;1.50;;
13309;SDS011;6723;48.256;16.402;2023-08-06T05:20:55;1.40;;;1.30;;
13309;SDS011;6723;48.256;16.402;2023-08-06T05:23:22;1.40;;;1.30;;
13309;SDS011;6723;48.256;16.402;2023-08-06T05:25:48;1.50;;;1.40;;
13309;SDS011;6723;48.256;16.402;2023-08-06T05:28:14;1.67;;;1.30;;
13309;SDS011;6723;48.256;16.402;2023-08-06T05:30:39;1.40;;;1.30;;
13309;SDS011;6723;48.256;16.402;2023-08-06T05:33:05;1.40;;;1.30;;
13309;SDS011;6723;48.256;16.402;2023-08-06T05:35:31;1.27;;;1.17;;
13309;SDS011;6723;48.256;16.402;2023-08-06T05:37:57;1.30;;;1.20;;
13309;SDS011;6723;48.256;16.402;2023-08-06T05:40:23;1.10;;;1.00;;
13309;SDS011;6723;48.256;16.402;2023-08-06T05:42:50;1.23;;;1.13;;
13309;SDS011;6723;48.256;16.402;2023-08-06T05:45:19;1.60;;;1.50;;
13309;SDS011;6723;48.256;16.402;2023-08-06T05:47:45;1.50;;;1.40;;
13309;SDS011;6723;48.256;16.402;2023-08-06T05:50:13;1.67;;;1.30;;
13309;SDS011;6723;48.256;16.402;2023-08-06T05:52:38;1.80;;;1.27;;
13309;SDS011;6723;48.256;16.402;2023-08-06T05:55:04;1.40;;;1.30;;
13309;SDS011;6723;48.256;16.402;2023-08-06T05:57:30;3.37;;;1.40;;
13309;SDS011;6723;48.256;16.402;2023-08-06T05:59:56;1.63;;;1.20;;
13309;SDS011;6723;48.256;16.402;2023-08-06T06:02:22;1.57;;;1.10;;
13309;SDS011;6723;48.256;16.402;2023-08-06T06:04:47;1.57;;;1.47;;
13309;SDS011;6723;48.256;16.402;2023-08-06T06:07:13;2.23;;;1.60;;
13309;SDS011;6723;48.256;16.402;2023-08-06T06:09:39;1.27;;;1.17;;
13309;SDS011;6723;48.256;16.402;2023-08-06T06:12:06;1.70;;;1.40;;
13309;SDS011;6723;48.256;16.402;2023-08-06T06:14:32;1.70;;;1.60;;
13309;SDS011;6723;48.256;16.402;2023-08-06T06:16:58;1.60;;;1.50;;
13309;SDS011;6723;48.256;16.402;2023-08-06T06:19:25;1.60;;;1.50;;
13309;SDS011;6723;48.256;16.402;2023-08-06T06:21:52;1.50;;;1.40;;
13309;SDS011;6723;48.256;16.402;2023-08-06T06:24:18;1.57;;;1.47;;
13309;SDS011;6723;48.256;16.402;2023-08-06T06:26:44;1.67;;;1.53;;
13309;SDS011;6723;48.256;16.402;2023-08-06T06:29:10;1.60;;;1.50;;
13309;SDS011;6723;48.256;16.402;2023-08-06T06:31:35;1.37;;;1.27;;
13309;SDS011;6723;48.256;16.402;2023-08-06T06:34:01;1.40;;;1.30;;
13309;SDS011;6723;48.256;16.402;2023-08-06T06:36:27;3.80;;;1.80;;
13309;SDS011;6723;48.256;16.402;2023-08-06T06:38:52;1.73;;;1.47;;
13309;SDS011;6723;48.256;16.402;2023-08-06T06:41:18;1.50;;;1.40;;
13309;SDS011;6723;48.256;16.402;2023-08-06T06:43:44;1.90;;;1.70;;
13309;SDS011;6723;48.256;16.402;2023-08-06T06:46:10;1.67;;;1.57;;
13309;SDS011;6723;48.256;16.402;2023-08-06T06:48:35;2.60;;;1.60;;
13309;SDS011;6723;48.256;16.402;2023-08-06T06:51:01;1.70;;;1.60;;
13309;SDS011;6723;48.256;16.402;2023-08-06T06:53:28;1.77;;;1.43;;
13309;SDS011;6723;48.256;16.402;2023-08-06T06:56:03;1.73;;;1.60;;
13309;SDS011;6723;48.256;16.402;2023-08-06T06:58:30;2.70;;;1.80;;
13309;SDS011;6723;48.256;16.402;2023-08-06T07:00:56;1.67;;;1.57;;
13309;SDS011;6723;48.256;16.402;2023-08-06T07:03:22;1.60;;;1.50;;
13309;SDS011;6723;48.256;16.402;2023-08-06T07:05:49;1.47;;;1.37;;
13309;SDS011;6723;48.256;16.402;2023-08-06T07:08:15;1.77;;;1.67;;
13309;SDS011;6723;48.256;16.402;2023-08-06T07:10:41;1.37;;;1.27;;
13309;SDS011;6723;48.256;16.402;2023-08-06T07:13:08;1.50;;;1.40;;
13309;SDS011;6723;48.256;16.402;2023-08-06T07:15:35;1.67;;;1.57;;
13309;SDS011;6723;48.256;16.402;2023-08-06T07:18:01;1.70;;;1.60;;
13309;SDS011;6723;48.256;16.402;2023-08-06T07:20:27;1.73;;;1.63;;
13309;SDS011;6723;48.256;16.402;2023-08-06T07:22:56;1.60;;;1.50;;
13309;SDS011;6723;48.256;16.402;2023-08-06T07:25:22;1.80;;;1.70;;
13309;SDS011;6723;48.256;16.402;2023-08-06T07:27:48;2.53;;;1.50;;
13309;SDS011;6723;48.256;16.402;2023-08-06T07:30:14;2.63;;;1.83;;
13309;SDS011;6723;48.256;16.402;2023-08-06T07:32:40;2.00;;;1.53;;
13309;SDS011;6723;48.256;16.402;2023-08-06T07:35:05;1.37;;;1.27;;
13309;SDS011;6723;48.256;16.402;2023-08-06T07:37:33;1.33;;;1.23;;
13309;SDS011;6723;48.256;16.402;2023-08-06T07:39:59;1.20;;;1.10;;
13309;SDS011;6723;48.256;16.402;2023-08-06T07:42:24;1.20;;;1.10;;
13309;SDS011;6723;48.256;16.402;2023-08-06T07:44:54;1.23;;;1.13;;
13309;SDS011;6723;48.256;16.402;2023-08-06T07:47:20;1.40;;;1.30;;
13309;SDS011;6723;48.256;16.402;2023-08-06T07:49:46;2.17;;;1.13;;
13309;SDS011;6723;48.256;16.402;2023-08-06T07:52:12;1.50;;;1.40;;
13309;SDS011;6723;48.256;16.402;2023-08-06T07:54:38;1.40;;;1.30;;
13309;SDS011;6723;48.256;16.402;2023-08-06T07:57:04;1.40;;;1.30;;
13309;SDS011;6723;48.256;16.402;2023-08-06T07:59:30;1.30;;;1.20;;
13309;SDS011;6723;48.256;16.402;2023-08-06T08:01:56;1.40;;;1.30;;
13309;SDS011;6723;48.256;16.402;2023-08-06T08:04:22;1.37;;;1.27;;
13309;SDS011;6723;48.256;16.402;2023-08-06T08:06:48;1.50;;;1.40;;
13309;SDS011;6723;48.256;16.402;2023-08-06T08:09:14;1.80;;;1.50;;
13309;SDS011;6723;48.256;16.402;2023-08-06T08:11:42;1.70;;;1.60;;
13309;SDS011;6723;48.256;16.402;2023-08-06T08:14:08;1.70;;;1.60;;
13309;SDS011;6723;48.256;16.402;2023-08-06T08:16:34;5.90;;;1.60;;
13309;SDS011;6723;48.256;16.402;2023-08-06T08:18:59;2.10;;;1.90;;
13309;SDS011;6723;48.256;16.402;2023-08-06T08:21:25;1.87;;;1.77;;
13309;SDS011;6723;48.256;16.402;2023-08-06T08:23:51;2.80;;;1.80;;
13309;SDS011;6723;48.256;16.402;2023-08-06T08:26:17;2.27;;;1.80;;
13309;SDS011;6723;48.256;16.402;2023-08-06T08:28:43;1.83;;;1.70;;
13309;SDS011;6723;48.256;16.402;2023-08-06T08:31:09;1.83;;;1.70;;
13309;SDS011;6723;48.256;16.402;2023-08-06T08:33:36;1.87;;;1.77;;
13309;SDS011;6723;48.256;16.402;2023-08-06T08:36:05;1.80;;;1.70;;
13309;SDS011;6723;48.256;16.402;2023-08-06T08:38:31;1.83;;;1.70;;
13309;SDS011;6723;48.256;16.402;2023-08-06T08:40:57;1.93;;;1.73;;
13309;SDS011;6723;48.256;16.402;2023-08-06T08:43:23;1.60;;;1.50;;
13309;SDS011;6723;48.256;16.402;2023-08-06T08:45:49;2.40;;;1.37;;
13309;SDS011;6723;48.256;16.402;2023-08-06T08:48:17;1.57;;;1.43;;
13309;SDS011;6723;48.256;16.402;2023-08-06T08:50:45;1.83;;;1.73;;
13309;SDS011;6723;48.256;16.402;2023-08-06T08:53:15;2.37;;;1.57;;
13309;SDS011;6723;48.256;16.402;2023-08-06T08:55:42;3.13;;;1.77;;
13309;SDS011;6723;48.256;16.402;2023-08-06T08:58:13;2.50;;;1.80;;
13309;SDS011;6723;48.256;16.402;2023-08-06T09:00:43;2.60;;;1.70;;
13309;SDS011;6723;48.256;16.402;2023-08-06T09:03:13;3.27;;;1.97;;
13309;SDS011;6723;48.256;16.402;2023-08-06T09:05:43;2.30;;;2.10;;
13309;SDS011;6723;48.256;16.402;2023-08-06T09:08:11;3.57;;;3.00;;
13309;SDS011;6723;48.256;16.402;2023-08-06T09:10:42;2.17;;;2.00;;
13309;SDS011;6723;48.256;16.402;2023-08-06T09:13:08;2.90;;;2.60;;
13309;SDS011;6723;48.256;16.402;2023-08-06T09:15:34;1.83;;;1.60;;
13309;SDS011;6723;48.256;16.402;2023-08-06T09:18:00;2.10;;;1.90;;
13309;SDS011;6723;48.256;16.402;2023-08-06T09:20:38;1.80;;;1.70;;
13309;SDS011;6723;48.256;16.402;2023-08-06T09:23:10;2.70;;;1.87;;
13309;SDS011;6723;48.256;16.402;2023-08-06T09:25:39;2.37;;;2.20;;
13309;SDS011;6723;48.256;16.402;2023-08-06T09:28:06;1.83;;;1.73;;
13309;SDS011;6723;48.256;16.402;2023-08-06T09:30:35;2.17;;;1.70;;
13309;SDS011;6723;48.256;16.402;2023-08-06T09:33:02;2.30;;;1.93;;
13309;SDS011;6723;48.256;16.402;2023-08-06T09:35:29;2.30;;;2.03;;
13309;SDS011;6723;48.256;16.402;2023-08-06T09:38:01;2.67;;;1.80;;
13309;SDS011;6723;48.256;16.402;2023-08-06T09:40:35;1.60;;;1.50;;
13309;SDS011;6723;48.256;16.402;2023-08-06T09:43:02;1.80;;;1.60;;
13309;SDS011;6723;48.256;16.402;2023-08-06T09:47:59;2.10;;;1.90;;
13309;SDS011;6723;48.256;16.402;2023-08-06T09:50:29;1.90;;;1.80;;
13309;SDS011;6723;48.256;16.402;2023-08-06T09:52:56;2.20;;;1.97;;
13309;SDS011;6723;48.256;16.402;2023-08-06T09:55:23;2.30;;;2.10;;
13309;SDS011;6723;48.256;16.402;2023-08-06T09:57:51;2.27;;;2.10;;
13309;SDS011;6723;48.256;16.402;2023-08-06T10:00:18;2.07;;;1.97;;
13309;SDS011;6723;48.256;16.402;2023-08-06T10:02:44;2.90;;;1.73;;
13309;SDS011;6723;48.256;16.402;2023-08-06T10:05:10;1.70;;;1.60;;
13309;SDS011;6723;48.256;16.402;2023-08-06T10:07:36;1.57;;;1.47;;
13309;SDS011;6723;48.256;16.402;2023-08-06T10:10:05;2.30;;;1.80;;
13309;SDS011;6723;48.256;16.402;2023-08-06T10:12:43;2.00;;;1.80;;
13309;SDS011;6723;48.256;16.402;2023-08-06T10:15:13;1.60;;;1.50;;
13309;SDS011;6723;48.256;16.402;2023-08-06T10:17:45;1.80;;;1.70;;
13309;SDS011;6723;48.256;16.402;2023-08-06T10:20:13;1.73;;;1.47;;
13309;SDS011;6723;48.256;16.402;2023-08-06T10:22:43;1.60;;;1.40;;
13309;SDS011;6723;48.256;16.402;2023-08-06T10:25:10;1.50;;;1.40;;
13309;SDS011;6723;48.256;16.402;2023-08-06T10:27:39;1.83;;;1.07;;
13309;SDS011;6723;48.256;16.402;2023-08-06T10:30:21;1.27;;;1.17;;
13309;SDS011;6723;48.256;16.402;2023-08-06T10:32:51;1.87;;;1.50;;
13309;SDS011;6723;48.256;16.402;2023-08-06T10:35:34;2.10;;;1.47;;
13309;SDS011;6723;48.256;16.402;2023-08-06T10:38:22;1.70;;;1.33;;
13309;SDS011;6723;48.256;16.402;2023-08-06T10:41:00;1.10;;;1.00;;
13309;SDS011;6723;48.256;16.402;2023-08-06T10:43:34;1.70;;;1.50;;
13309;SDS011;6723;48.256;16.402;2023-08-06T10:46:03;1.30;;;1.20;;
13309;SDS011;6723;48.256;16.402;2023-08-06T10:48:38;2.40;;;1.40;;
13309;SDS011;6723;48.256;16.402;2023-08-06T10:51:08;1.30;;;1.20;;
13309;SDS011;6723;48.256;16.402;2023-08-06T10:53:35;2.47;;;1.40;;
13309;SDS011;6723;48.256;16.402;2023-08-06T10:56:02;1.60;;;1.40;;
13309;SDS011;6723;48.256;16.402;2023-08-06T10:58:37;1.40;;;1.30;;
13309;SDS011;6723;48.256;16.402;2023-08-06T11:01:03;1.83;;;1.70;;
13309;SDS011;6723;48.256;16.402;2023-08-06T11:03:28;2.80;;;1.57;;
13309;SDS011;6723;48.256;16.402;2023-08-06T11:05:54;1.43;;;1.33;;
13309;SDS011;6723;48.256;16.402;2023-08-06T11:08:24;2.27;;;1.70;;
13309;SDS011;6723;48.256;16.402;2023-08-06T11:11:08;1.77;;;1.67;;
13309;SDS011;6723;48.256;16.402;2023-08-06T11:13:36;3.23;;;2.20;;
13309;SDS011;6723;48.256;16.402;2023-08-06T11:16:04;2.20;;;2.00;;
13309;SDS011;6723;48.256;16.402;2023-08-06T11:18:31;2.77;;;2.20;;
13309;SDS011;6723;48.256;16.402;2023-08-06T11:20:58;2.47;;;2.27;;
13309;SDS011;6723;48.256;16.402;2023-08-06T11:23:29;3.00;;;2.70;;
13309;SDS011;6723;48.256;16.402;2023-08-06T11:25:55;5.50;;;3.27;;
13309;SDS011;6723;48.256;16.402;2023-08-06T11:28:22;3.17;;;2.40;;
13309;SDS011;6723;48.256;16.402;2023-08-06T11:30:49;2.60;;;2.40;;
13309;SDS011;6723;48.256;16.402;2023-08-06T11:33:19;2.40;;;2.20;;
13309;SDS011;6723;48.256;16.402;2023-08-06T11:35:50;3.30;;;2.40;;
13309;SDS011;6723;48.256;16.402;2023-08-06T11:38:17;2.40;;;2.20;;
13309;SDS011;6723;48.256;16.402;2023-08-06T11:40:52;2.77;;;2.53;;
13309;SDS011;6723;48.256;16.402;2023-08-06T11:43:19;2.73;;;2.53;;
13309;SDS011;6723;48.256;16.402;2023-08-06T11:45:48;2.60;;;2.40;;
13309;SDS011;6723;48.256;16.402;2023-08-06T11:48:14;3.30;;;2.30;;
13309;SDS011;6723;48.256;16.402;2023-08-06T11:50:40;2.53;;;2.10;;
13309;SDS011;6723;48.256;16.402;2023-08-06T11:53:06;2.57;;;2.37;;
13309;SDS011;6723;48.256;16.402;2023-08-06T11:55:32;2.70;;;2.50;;
13309;SDS011;6723;48.256;16.402;2023-08-06T11:57:58;2.90;;;2.70;;
13309;SDS011;6723;48.256;16.402;2023-08-06T12:00:28;3.00;;;2.50;;
13309;SDS011;6723;48.256;16.402;2023-08-06T12:02:54;2.83;;;2.40;;
13309;SDS011;6723;48.256;16.402;2023-08-06T12:05:21;2.90;;;2.60;;
13309;SDS011;6723;48.256;16.402;2023-08-06T12:07:50;3.00;;;2.80;;
13309;SDS011;6723;48.256;16.402;2023-08-06T12:10:21;3.10;;;2.57;;
13309;SDS011;6723;48.256;16.402;2023-08-06T12:12:49;3.23;;;2.53;;
13309;SDS011;6723;48.256;16.402;2023-08-06T12:15:15;2.80;;;2.60;;
13309;SDS011;6723;48.256;16.402;2023-08-06T12:17:41;2.97;;;2.67;;
13309;SDS011;6723;48.256;16.402;2023-08-06T12:20:07;3.57;;;2.70;;
13309;SDS011;6723;48.256;16.402;2023-08-06T12:22:34;3.30;;;2.77;;
13309;SDS011;6723;48.256;16.402;2023-08-06T12:25:01;4.63;;;2.80;;
13309;SDS011;6723;48.256;16.402;2023-08-06T12:27:37;3.97;;;2.57;;
13309;SDS011;6723;48.256;16.402;2023-08-06T12:30:05;3.67;;;2.37;;
13309;SDS011;6723;48.256;16.402;2023-08-06T12:32:31;3.13;;;2.80;;
13309;SDS011;6723;48.256;16.402;2023-08-06T12:34:58;3.10;;;2.80;;
13309;SDS011;6723;48.256;16.402;2023-08-06T12:37:24;2.60;;;2.40;;
13309;SDS011;6723;48.256;16.402;2023-08-06T12:39:50;3.97;;;2.73;;
13309;SDS011;6723;48.256;16.402;2023-08-06T12:42:16;3.20;;;2.90;;
13309;SDS011;6723;48.256;16.402;2023-08-06T12:44:42;4.03;;;2.73;;
13309;SDS011;6723;48.256;16.402;2023-08-06T12:47:08;4.20;;;2.67;;
13309;SDS011;6723;48.256;16.402;2023-08-06T12:49:34;4.57;;;2.63;;
13309;SDS011;6723;48.256;16.402;2023-08-06T12:52:00;3.67;;;2.50;;
13309;SDS011;6723;48.256;16.402;2023-08-06T12:54:27;2.90;;;2.60;;
13309;SDS011;6723;48.256;16.402;2023-08-06T12:56:53;3.90;;;2.50;;
13309;SDS011;6723;48.256;16.402;2023-08-06T12:59:19;2.57;;;2.37;;
13309;SDS011;6723;48.256;16.402;2023-08-06T13:01:46;2.33;;;2.17;;
13309;SDS011;6723;48.256;16.402;2023-08-06T13:04:13;2.60;;;2.40;;
13309;SDS011;6723;48.256;16.402;2023-08-06T13:06:39;3.47;;;2.60;;
13309;SDS011;6723;48.256;16.402;2023-08-06T13:09:05;5.30;;;2.60;;
13309;SDS011;6723;48.256;16.402;2023-08-06T13:11:33;3.93;;;2.70;;
13309;SDS011;6723;48.256;16.402;2023-08-06T13:14:04;4.17;;;2.70;;
13309;SDS011;6723;48.256;16.402;2023-08-06T13:16:35;4.27;;;3.17;;
13309;SDS011;6723;48.256;16.402;2023-08-06T13:19:03;2.87;;;2.67;;
13309;SDS011;6723;48.256;16.402;2023-08-06T13:21:33;3.23;;;2.70;;
13309;SDS011;6723;48.256;16.402;2023-08-06T13:24:00;2.83;;;2.60;;
13309;SDS011;6723;48.256;16.402;2023-08-06T13:26:28;2.83;;;2.50;;
13309;SDS011;6723;48.256;16.402;2023-08-06T13:28:57;3.13;;;2.80;;
13309;SDS011;6723;48.256;16.402;2023-08-06T13:31:24;3.93;;;2.40;;
13309;SDS011;6723;48.256;16.402;2023-08-06T13:33:51;3.53;;;2.80;;
13309;SDS011;6723;48.256;16.402;2023-08-06T13:36:21;3.20;;;2.90;;
13309;SDS011;6723;48.256;16.402;2023-08-06T13:38:47;2.77;;;2.50;;
13309;SDS011;6723;48.256;16.402;2023-08-06T13:41:13;5.33;;;2.80;;
13309;SDS011;6723;48.256;16.402;2023-08-06T13:43:39;3.17;;;2.87;;
13309;SDS011;6723;48.256;16.402;2023-08-06T13:46:05;2.67;;;2.43;;
13309;SDS011;6723;48.256;16.402;2023-08-06T13:48:31;3.27;;;2.60;;
13309;SDS011;6723;48.256;16.402;2023-08-06T13:50:57;4.93;;;3.00;;
13309;SDS011;6723;48.256;16.402;2023-08-06T13:53:23;3.33;;;2.60;;
13309;SDS011;6723;48.256;16.402;2023-08-06T13:55:55;4.17;;;2.70;;
13309;SDS011;6723;48.256;16.402;2023-08-06T13:58:22;3.00;;;2.80;;
13309;SDS011;6723;48.256;16.402;2023-08-06T14:00:49;2.87;;;2.50;;
13309;SDS011;6723;48.256;16.402;2023-08-06T14:03:18;3.03;;;2.70;;
13309;SDS011;6723;48.256;16.402;2023-08-06T14:05:44;3.53;;;2.90;;
13309;SDS011;6723;48.256;16.402;2023-08-06T14:08:10;4.07;;;2.77;;
13309;SDS011;6723;48.256;16.402;2023-08-06T14:10:35;3.60;;;2.63;;
13309;SDS011;6723;48.256;16.402;2023-08-06T14:13:01;3.43;;;2.73;;
13309;SDS011;6723;48.256;16.402;2023-08-06T14:15:27;3.70;;;2.87;;
13309;SDS011;6723;48.256;16.402;2023-08-06T14:17:53;3.90;;;2.50;;
13309;SDS011;6723;48.256;16.402;2023-08-06T14:20:18;2.80;;;2.60;;
13309;SDS011;6723;48.256;16.402;2023-08-06T14:22:44;2.60;;;2.40;;
13309;SDS011;6723;48.256;16.402;2023-08-06T14:25:10;3.30;;;2.70;;
13309;SDS011;6723;48.256;16.402;2023-08-06T14:27:35;3.80;;;2.47;;
13309;SDS011;6723;48.256;16.402;2023-08-06T14:30:05;2.63;;;2.30;;
13309;SDS011;6723;48.256;16.402;2023-08-06T14:32:31;2.30;;;1.87;;
13309;SDS011;6723;48.256;16.402;2023-08-06T14:34:58;2.30;;;1.60;;
13309;SDS011;6723;48.256;16.402;2023-08-06T14:37:24;2.43;;;1.77;;
13309;SDS011;6723;48.256;16.402;2023-08-06T14:39:50;2.17;;;1.67;;
13309;SDS011;6723;48.256;16.402;2023-08-06T14:42:17;2.33;;;1.40;;
13309;SDS011;6723;48.256;16.402;2023-08-06T14:44:43;1.57;;;1.13;;
13309;SDS011;6723;48.256;16.402;2023-08-06T14:47:09;1.10;;;0.90;;
13309;SDS011;6723;48.256;16.402;2023-08-06T14:49:34;3.80;;;0.90;;